Chicago, Illinois
Traffic Map
Current Weather Conditions
Chicago, Illinois
Broken Clouds
Broken Clouds
69°
Feels Like: 69°
Wind Chill: 69° Ceiling: 30000
Heat Index: 69° Visibility: 10mi
Dew Point: 67° Wind: 0mph
Humidity: 93% Direction: ° ()
Pressure: 29.88in Gusts: 0mph
Raw Report DataKMDW 021151Z 00000KT 10SM FEW038 SCT150 BKN300 21/19 A2988 RMK AO2 SLP108 T02060194 10239 20206 53003 $
Traffic Incident Summary
Active as of:
Severity:
Category:
InformationThere was an issue retrieving the traffic information for this location. Please try a different location or try again shortly.
Advertisements
Track Severe Weather on mobile